Terminal Aerodrome Forecast
Issued by NWS

Home | Current Version | Previous Version | Text Only | Print | Product List | Glossary On
Versions: 1 2 3 4 5 6 7 8 9 10 11 12 13 14 15 16 17 18 19 20 21 22 23 24 25 26 27 28 29 30 31
000
FTUS45 KBOU 282334
TAFAPA
TAF
KAPA 282334Z 2900/2924 VRB05KT P6SM BKN015 OVC022
      TEMPO 2900/2902 4SM -DZ BKN012
     FM290200 10009KT P6SM VCSH BKN010 OVC020
      TEMPO 2903/2905 2SM -SN BR OVC007
     FM290600 09009KT 1 1/2SM -SN BR BKN006 OVC010
     FM291200 07010KT 1SM -SN BR OVC006
     FM291800 04010KT 1SM -SNRA BR OVC007
     FM292300 02011KT 2SM -SN BR OVC011=

USA.gov is the U.S. government's official web portal to all federal, state and local government web resources and services.